< < Back
Terminal Aerodrome Forecast


Current Version              Previous Versions:   1  2  3  4  5  6  7  8  9  

Terminal Aerodrome Forecast

286
FTUS42 KJAX 020205 AAA
TAFJAX
TAF AMD
KJAX 020205Z 0202/0224 03003KT 3SM BR OVC003
     FM020430 02003KT 1SM BR OVC002
     FM020600 01003KT 1/2SM FG OVC001
     FM021300 05002KT 2SM BR BKN005
     FM021500 VRB03KT P6SM BKN018
     FM021800 VRB03KT P6SM BKN035=

Latest METAR

345
SAUS80 KWBC 020700 CCA
MTRJAX
METAR KJAX 020656Z 34003KT 1/4SM FG VV002 12/12 A3034 RMK AO2 SLP274
T01220122 $


USA.gov is the U.S. government's official web portal to all federal, state and local government web resources and services.